Mach Schnell — WDJ3324 — position and weather

sailwx.info

Track history (hours):
 
Tides and Currents Weather Stations Pressure Air Temp Water Temp Dewpoint Dewpoint Depression Visibility Wind Speed Wind Dir Waves Ship Positions

Mach Schnell

Owner: WAK LLC., Fort Lauderdale, FL. More information available from US FCC via Universal Licensing System and Coast Guard Vessel Documentation Center.

Last reported at 2018-Jun-10 19:57 UTC. Time now 2018-Jun-20 12:50 UTC.
Position N 18°15' W 063°17'.
Warning: this ship's position is 9 days out of date.

Length 18 m.

Type: Sailing vessel. MMSI: 367766920.

Date/timePositionNaut miles runAvg speedWind from/ knotsBaromVisibWave heightAir tempDewpointWater temp
2018-Jun-10 19:57N 18°15' W 063°17'511.1
2018-Jun-10 19:30N 18°10' W 063°14'611.3
2018-Jun-10 18:59N 18°05' W 063°11'3 6.2
2018-Jun-10 18:29N 18°03' W 063°09'3 5.8
2018-Jun-10 17:53N 18°02' W 063°06'0 0.0
2018-Jun-10 17:20N 18°02' W 063°06'0 0.0
2018-Jun-10 16:50N 18°02' W 063°06'0 0.0
2018-Jun-10 16:20N 18°02' W 063°06'0 0.0
2018-Jun-10 15:56N 18°02' W 063°06'0 0.0
2018-Jun-10 15:26N 18°02' W 063°06'0 0.0
2018-Jun-10 14:53N 18°02' W 063°06'1 0.6
2018-Jun-10 13:56N 18°02' W 063°05'0 0.0
2018-Jun-10 13:27N 18°02' W 063°05'0 0.0
2018-Jun-10 12:56N 18°02' W 063°05'0 0.0
2018-Jun-10 12:27N 18°02' W 063°05'0 0.0
2018-Jun-10 11:57N 18°02' W 063°05'0 0.0
2018-Jun-10 11:29N 18°02' W 063°05'0 0.0
2018-Jun-10 10:59N 18°02' W 063°05'0 0.0
2018-Jun-10 10:29N 18°02' W 063°05'0 0.0
2018-Jun-10 09:41N 18°02' W 063°05'0 0.0
2018-Jun-10 09:29N 18°02' W 063°05'0 0.0
2018-Jun-10 08:59N 18°02' W 063°05'0 0.0
2018-Jun-10 08:14N 18°02' W 063°05'0 0.0
2018-Jun-10 07:32N 18°02' W 063°05'0 0.0
2018-Jun-10 07:26N 18°02' W 063°05'0 0.0
2018-Jun-10 06:59N 18°02' W 063°05'0 0.0
2018-Jun-10 06:17N 18°02' W 063°05'0 0.0
2018-Jun-10 05:59N 18°02' W 063°05'0 0.0
2018-Jun-10 05:29N 18°02' W 063°05'0 0.0
2018-Jun-10 04:59N 18°02' W 063°05'0 0.0
2018-Jun-10 04:22N 18°02' W 063°05'  
2018-Jun-04 19:38N 18°02' W 063°05'0 0.0
2018-Jun-04 19:23N 18°02' W 063°05'0 1.2
2018-Jun-04 18:59N 18°02' W 063°06'0 0.3
2018-Jun-04 18:17N 18°02' W 063°06'0 0.0
2018-Jun-04 17:59N 18°02' W 063°06'0 0.0
2018-Jun-04 17:17N 18°02' W 063°06'0 0.0
2018-Jun-04 16:59N 18°02' W 063°06'0 0.0
2018-Jun-04 16:29N 18°02' W 063°06'0 0.0
2018-Jun-04 15:59N 18°02' W 063°06'0 0.0
2018-Jun-04 15:20N 18°02' W 063°06'0 0.0
2018-Jun-04 14:50N 18°02' W 063°06'0 0.1
2018-Jun-04 14:29N 18°02' W 063°06'3 5.1
2018-Jun-04 13:59N 17°60' W 063°04'3 7.0
2018-Jun-04 13:30N 17°58' W 063°01'  
Track history (hours):
 
Tides and Currents Weather Stations Pressure Air Temp Water Temp Dewpoint Dewpoint Depression Visibility Wind Speed Wind Dir Waves Ship Positions

Mach Schnell

Owner: WAK LLC., Fort Lauderdale, FL. More information available from US FCC via Universal Licensing System and Coast Guard Vessel Documentation Center.

Last reported at 2018-Jun-10 19:57 UTC. Time now 2018-Jun-20 12:50 UTC.
Position N 18°15' W 063°17'.
Warning: this ship's position is 9 days out of date.

Length 18 m.

Type: Sailing vessel. MMSI: 367766920.

Date/timePositionNaut miles runAvg speedWind from/ knotsBaromVisibWave heightAir tempDewpointWater temp
2018-Jun-10 19:57N 18°15' W 063°17'511.1
2018-Jun-10 19:30N 18°10' W 063°14'611.3
2018-Jun-10 18:59N 18°05' W 063°11'3 6.2
2018-Jun-10 18:29N 18°03' W 063°09'3 5.8
2018-Jun-10 17:53N 18°02' W 063°06'0 0.0
2018-Jun-10 17:20N 18°02' W 063°06'0 0.0
2018-Jun-10 16:50N 18°02' W 063°06'0 0.0
2018-Jun-10 16:20N 18°02' W 063°06'0 0.0
2018-Jun-10 15:56N 18°02' W 063°06'0 0.0
2018-Jun-10 15:26N 18°02' W 063°06'0 0.0
2018-Jun-10 14:53N 18°02' W 063°06'1 0.6
2018-Jun-10 13:56N 18°02' W 063°05'0 0.0
2018-Jun-10 13:27N 18°02' W 063°05'0 0.0
2018-Jun-10 12:56N 18°02' W 063°05'0 0.0
2018-Jun-10 12:27N 18°02' W 063°05'0 0.0
2018-Jun-10 11:57N 18°02' W 063°05'0 0.0
2018-Jun-10 11:29N 18°02' W 063°05'0 0.0
2018-Jun-10 10:59N 18°02' W 063°05'0 0.0
2018-Jun-10 10:29N 18°02' W 063°05'0 0.0
2018-Jun-10 09:41N 18°02' W 063°05'0 0.0
2018-Jun-10 09:29N 18°02' W 063°05'0 0.0
2018-Jun-10 08:59N 18°02' W 063°05'0 0.0
2018-Jun-10 08:14N 18°02' W 063°05'0 0.0
2018-Jun-10 07:32N 18°02' W 063°05'0 0.0
2018-Jun-10 07:26N 18°02' W 063°05'0 0.0
2018-Jun-10 06:59N 18°02' W 063°05'0 0.0
2018-Jun-10 06:17N 18°02' W 063°05'0 0.0
2018-Jun-10 05:59N 18°02' W 063°05'0 0.0
2018-Jun-10 05:29N 18°02' W 063°05'0 0.0
2018-Jun-10 04:59N 18°02' W 063°05'0 0.0
2018-Jun-10 04:22N 18°02' W 063°05'  
2018-Jun-04 19:38N 18°02' W 063°05'0 0.0
2018-Jun-04 19:23N 18°02' W 063°05'0 1.2
2018-Jun-04 18:59N 18°02' W 063°06'0 0.3
2018-Jun-04 18:17N 18°02' W 063°06'0 0.0
2018-Jun-04 17:59N 18°02' W 063°06'0 0.0
2018-Jun-04 17:17N 18°02' W 063°06'0 0.0
2018-Jun-04 16:59N 18°02' W 063°06'0 0.0
2018-Jun-04 16:29N 18°02' W 063°06'0 0.0
2018-Jun-04 15:59N 18°02' W 063°06'0 0.0
2018-Jun-04 15:20N 18°02' W 063°06'0 0.0
2018-Jun-04 14:50N 18°02' W 063°06'0 0.1
2018-Jun-04 14:29N 18°02' W 063°06'3 5.1
2018-Jun-04 13:59N 17°60' W 063°04'3 7.0
2018-Jun-04 13:30N 17°58' W 063°01'  

Dump ship's entire track history